createdAt,value
2022-10-11T00:01:06.516Z,0.30
2022-10-11T00:03:35.070Z,0.30
2022-10-11T00:06:05.857Z,0.30
2022-10-11T00:08:34.961Z,0.30
2022-10-11T00:11:06.644Z,0.30
2022-10-11T00:13:35.739Z,0.30
2022-10-11T00:16:09.446Z,0.20
2022-10-11T00:18:38.009Z,0.40
2022-10-11T00:21:08.489Z,0.30
2022-10-11T00:23:37.340Z,0.30
2022-10-11T00:26:09.802Z,0.30
2022-10-11T00:28:39.107Z,0.20
2022-10-11T00:31:09.340Z,0.30
2022-10-11T00:33:38.108Z,0.20
2022-10-11T00:36:07.877Z,0.20
2022-10-11T00:38:36.621Z,0.30
2022-10-11T00:41:06.598Z,0.30
2022-10-11T00:43:35.348Z,0.30
2022-10-11T00:46:08.318Z,0.20
2022-10-11T00:48:42.681Z,0.30
2022-10-11T00:51:18.652Z,0.30
2022-10-11T00:53:50.710Z,0.30
2022-10-11T00:56:25.236Z,0.30
2022-10-11T00:58:54.979Z,0.30
2022-10-11T01:01:23.761Z,0.30
2022-10-11T01:03:52.353Z,0.30
2022-10-11T01:06:20.878Z,0.20
2022-10-11T01:08:49.791Z,0.30
2022-10-11T01:11:24.560Z,0.40
2022-10-11T01:14:19.785Z,0.30
2022-10-11T01:16:56.299Z,0.20
2022-10-11T01:20:03.697Z,0.30
2022-10-11T01:23:10.923Z,0.20
2022-10-11T01:25:51.291Z,0.20
2022-10-11T01:28:42.327Z,0.30
2022-10-11T01:31:19.514Z,0.20
2022-10-11T01:33:53.288Z,0.20
2022-10-11T01:36:29.403Z,0.30
2022-10-11T01:39:03.620Z,0.30
2022-10-11T01:41:36.150Z,0.40
2022-10-11T01:44:06.580Z,0.20
2022-10-11T01:46:39.793Z,0.33
2022-10-11T01:49:09.442Z,0.40
2022-10-11T01:51:45.227Z,0.30
2022-10-11T01:55:07.613Z,0.30
2022-10-11T01:57:59.943Z,0.20
2022-10-11T02:00:35.329Z,0.30
2022-10-11T02:03:20.882Z,0.40
2022-10-11T02:05:54.330Z,0.30
2022-10-11T02:08:28.477Z,0.30
2022-10-11T02:11:05.725Z,0.27
2022-10-11T02:13:40.011Z,0.40
2022-10-11T02:16:25.589Z,0.30
2022-10-11T02:18:57.963Z,0.30
2022-10-11T02:21:27.589Z,0.20
2022-10-11T02:24:00.350Z,0.30
2022-10-11T02:26:32.586Z,0.40
2022-10-11T02:29:04.942Z,0.20
2022-10-11T02:31:36.753Z,0.30
2022-10-11T02:34:16.479Z,0.30
2022-10-11T02:36:52.103Z,0.40
2022-10-11T02:39:25.719Z,0.30
2022-10-11T02:41:59.108Z,0.30
2022-10-11T02:44:32.465Z,0.30
2022-10-11T02:47:02.405Z,0.40
2022-10-11T02:49:33.730Z,0.30
2022-10-11T02:52:02.215Z,0.30
2022-10-11T02:54:30.645Z,0.30
2022-10-11T02:56:59.211Z,0.30
2022-10-11T02:59:27.777Z,0.30
2022-10-11T03:01:57.478Z,0.40
2022-10-11T03:04:25.978Z,0.40
2022-10-11T03:06:55.912Z,0.30
2022-10-11T03:09:24.170Z,0.30
2022-10-11T03:11:52.474Z,0.30
2022-10-11T03:14:21.060Z,0.30
2022-10-11T03:16:51.558Z,0.30
2022-10-11T03:19:20.173Z,0.40
2022-10-11T03:21:48.610Z,0.40
2022-10-11T03:24:18.466Z,0.30
2022-10-11T03:27:18.817Z,0.40
2022-10-11T03:29:59.858Z,0.30
2022-10-11T03:32:28.900Z,0.30
2022-10-11T03:34:57.707Z,0.40
2022-10-11T03:37:26.481Z,0.37
2022-10-11T03:39:56.263Z,0.40
2022-10-11T03:42:24.548Z,0.33
2022-10-11T03:44:53.346Z,0.40
2022-10-11T03:47:21.779Z,0.30
2022-10-11T03:49:50.081Z,0.30
2022-10-11T03:52:49.500Z,0.30
2022-10-11T03:55:21.788Z,0.30
2022-10-11T03:57:50.303Z,0.40
2022-10-11T04:00:19.108Z,0.30
2022-10-11T04:02:47.461Z,0.30
2022-10-11T04:05:15.829Z,0.30
2022-10-11T04:07:44.496Z,0.50
2022-10-11T04:10:12.864Z,0.40
2022-10-11T04:12:42.621Z,0.40
2022-10-11T04:15:12.709Z,0.30
2022-10-11T04:17:41.630Z,0.30
2022-10-11T04:20:11.359Z,0.40
2022-10-11T04:22:39.635Z,0.37
2022-10-11T04:25:09.490Z,0.30
2022-10-11T04:27:38.076Z,0.20
2022-10-11T04:30:09.669Z,0.30
2022-10-11T04:32:38.210Z,0.20
2022-10-11T04:35:07.539Z,0.30
2022-10-11T04:37:35.884Z,0.40
2022-10-11T04:40:04.539Z,0.30
2022-10-11T04:42:33.077Z,0.30
2022-10-11T04:45:01.552Z,0.30
2022-10-11T04:47:31.307Z,0.30
2022-10-11T04:49:59.610Z,0.37
2022-10-11T04:52:27.989Z,0.30
2022-10-11T04:54:56.460Z,0.30
2022-10-11T04:57:24.991Z,0.30
2022-10-11T04:59:53.446Z,0.40
2022-10-11T05:02:22.006Z,0.30
2022-10-11T05:04:51.872Z,0.30
2022-10-11T05:07:20.452Z,0.30
2022-10-11T05:09:48.848Z,0.40
2022-10-11T05:12:17.549Z,0.40
2022-10-11T05:14:45.864Z,0.40
2022-10-11T05:17:14.199Z,0.40
2022-10-11T05:19:42.490Z,0.33
2022-10-11T05:22:12.481Z,0.30
2022-10-11T05:24:41.140Z,0.40
2022-10-11T05:27:09.531Z,0.30
2022-10-11T05:29:38.058Z,0.30
2022-10-11T05:32:06.845Z,0.30
2022-10-11T05:34:35.215Z,0.30
2022-10-11T05:37:03.542Z,0.40
2022-10-11T05:39:33.638Z,0.30
2022-10-11T05:42:03.208Z,0.30
2022-10-11T05:44:33.893Z,0.40
2022-10-11T05:47:02.359Z,0.30
2022-10-11T05:49:30.639Z,0.30
2022-10-11T05:51:59.134Z,0.30
2022-10-11T05:54:32.470Z,0.30
2022-10-11T05:57:00.898Z,0.40
2022-10-11T05:59:29.504Z,0.30
2022-10-11T06:01:57.970Z,0.30
2022-10-11T06:04:26.660Z,0.30
2022-10-11T06:06:55.120Z,0.20
2022-10-11T06:09:23.449Z,0.30
2022-10-11T06:11:53.663Z,0.30
2022-10-11T06:14:22.201Z,0.30
2022-10-11T06:16:50.940Z,0.30
2022-10-11T06:19:19.769Z,0.30
2022-10-11T06:21:49.314Z,0.40
2022-10-11T06:24:19.315Z,0.50
2022-10-11T06:26:50.275Z,0.30
2022-10-11T06:29:20.589Z,0.40
2022-10-11T06:31:50.083Z,0.50
2022-10-11T06:34:18.534Z,0.30
2022-10-11T06:36:47.070Z,0.40
2022-10-11T06:39:15.380Z,0.30
2022-10-11T06:41:43.934Z,0.30
2022-10-11T06:44:14.292Z,0.30
2022-10-11T06:46:44.650Z,0.30
2022-10-11T06:49:13.248Z,0.33
2022-10-11T06:51:41.597Z,0.30
2022-10-11T06:54:09.950Z,0.20
2022-10-11T06:56:39.460Z,0.20
2022-10-11T06:59:08.099Z,0.33
2022-10-11T07:01:36.668Z,0.30
2022-10-11T07:04:06.702Z,0.30
2022-10-11T07:06:39.069Z,0.33
2022-10-11T07:09:07.981Z,0.30
2022-10-11T07:11:37.289Z,0.30
2022-10-11T07:14:08.199Z,0.40
2022-10-11T07:16:37.324Z,0.30
2022-10-11T07:19:08.156Z,0.40
2022-10-11T07:21:37.150Z,0.30
2022-10-11T07:24:06.293Z,0.30
2022-10-11T07:26:38.257Z,0.23
2022-10-11T07:29:09.146Z,0.30
2022-10-11T07:31:39.934Z,0.30
2022-10-11T07:34:10.367Z,0.30
2022-10-11T07:36:38.990Z,0.30
2022-10-11T07:39:08.234Z,0.40
2022-10-11T07:41:39.687Z,0.30
2022-10-11T07:44:11.467Z,0.20
2022-10-11T07:46:39.850Z,0.20
2022-10-11T07:49:11.293Z,0.27
2022-10-11T07:51:40.171Z,0.30
2022-10-11T07:54:08.602Z,0.30
2022-10-11T07:56:38.212Z,0.20
2022-10-11T07:59:06.618Z,0.30
2022-10-11T08:01:35.195Z,0.20
2022-10-11T08:04:03.637Z,0.20
2022-10-11T08:06:33.470Z,0.20
2022-10-11T08:09:02.647Z,0.20
2022-10-11T08:11:33.130Z,0.20
2022-10-11T08:14:04.804Z,0.30
2022-10-11T08:16:33.622Z,0.20
2022-10-11T08:19:03.272Z,0.30
2022-10-11T08:21:33.270Z,0.30
2022-10-11T08:24:03.629Z,0.20
2022-10-11T08:26:32.447Z,0.20
2022-10-11T08:29:03.519Z,0.20
2022-10-11T08:31:32.516Z,0.20
2022-10-11T08:34:01.069Z,0.20
2022-10-11T08:36:29.582Z,0.20
2022-10-11T08:38:59.818Z,0.20
2022-10-11T08:41:32.947Z,0.20
2022-10-11T08:44:46.120Z,0.20
2022-10-11T08:47:22.708Z,0.20
2022-10-11T08:49:52.545Z,0.20
2022-10-11T08:52:24.390Z,0.20
2022-10-11T08:54:59.340Z,0.20
2022-10-11T08:57:32.551Z,0.30
2022-10-11T09:00:05.613Z,0.20
2022-10-11T09:03:06.889Z,0.20
2022-10-11T09:05:40.539Z,0.10
2022-10-11T09:08:16.008Z,0.20
2022-10-11T09:10:57.455Z,0.20
2022-10-11T09:13:58.959Z,0.20
2022-10-11T09:16:36.051Z,0.20
2022-10-11T09:19:22.218Z,0.17
2022-10-11T09:22:02.538Z,0.20
2022-10-11T09:24:45.798Z,0.20
2022-10-11T09:27:37.856Z,0.20
2022-10-11T09:30:16.332Z,0.20
2022-10-11T09:32:48.938Z,0.10
2022-10-11T09:35:19.139Z,0.20
2022-10-11T09:37:55.409Z,0.20
2022-10-11T09:40:47.304Z,0.20
2022-10-11T09:43:18.135Z,0.20
2022-10-11T09:45:49.426Z,0.20
2022-10-11T09:48:22.342Z,0.20
2022-10-11T09:50:52.238Z,0.20
2022-10-11T09:53:22.273Z,0.20
2022-10-11T09:55:55.376Z,0.20
2022-10-11T09:58:34.230Z,0.20
2022-10-11T10:01:08.018Z,0.27
2022-10-11T10:03:39.106Z,0.20
2022-10-11T10:06:11.906Z,0.20
2022-10-11T10:08:44.198Z,0.20
2022-10-11T10:11:20.554Z,0.20
2022-10-11T10:14:00.150Z,0.30
2022-10-11T10:16:44.812Z,0.27
2022-10-11T10:19:26.303Z,0.20
2022-10-11T10:22:03.558Z,0.30
2022-10-11T10:24:45.946Z,0.20
2022-10-11T10:27:22.420Z,0.13
2022-10-11T10:30:26.678Z,0.20
2022-10-11T10:33:16.383Z,0.20
2022-10-11T10:36:06.765Z,0.20
2022-10-11T10:38:54.103Z,0.20
2022-10-11T10:41:59.894Z,0.20
2022-10-11T10:44:39.006Z,0.20
2022-10-11T10:47:15.792Z,0.20
2022-10-11T10:49:55.094Z,0.13
2022-10-11T10:52:50.611Z,0.20
2022-10-11T10:55:42.333Z,0.20
2022-10-11T10:58:26.490Z,0.20
2022-10-11T11:01:14.103Z,0.20
2022-10-11T11:03:57.048Z,0.20
2022-10-11T11:06:36.751Z,0.20
2022-10-11T11:09:17.756Z,0.20
2022-10-11T11:11:57.598Z,0.20
2022-10-11T11:14:39.580Z,0.20
2022-10-11T11:17:23.736Z,0.30
2022-10-11T11:20:08.671Z,0.17
2022-10-11T11:22:47.789Z,0.20
2022-10-11T11:25:31.069Z,0.30
2022-10-11T11:28:11.773Z,0.20
2022-10-11T11:30:52.808Z,0.23
2022-10-11T11:33:32.578Z,0.20
2022-10-11T11:36:06.710Z,0.20
2022-10-11T11:38:46.119Z,0.20
2022-10-11T11:41:18.579Z,0.20
2022-10-11T11:43:59.708Z,0.10
2022-10-11T11:46:33.167Z,0.20
2022-10-11T11:49:12.153Z,0.20
2022-10-11T11:51:46.309Z,0.20
2022-10-11T11:54:25.982Z,0.20
2022-10-11T11:57:01.021Z,0.20
2022-10-11T11:59:37.281Z,0.23
2022-10-11T12:02:43.327Z,0.20
2022-10-11T12:05:15.007Z,0.20
2022-10-11T12:07:55.270Z,0.20
2022-10-11T12:10:33.801Z,0.20
2022-10-11T12:13:16.895Z,0.27
2022-10-11T12:15:59.306Z,0.20
2022-10-11T12:18:29.498Z,0.20
2022-10-11T12:21:06.640Z,0.10
2022-10-11T12:23:45.934Z,0.20
2022-10-11T12:26:45.778Z,0.20
2022-10-11T12:29:46.386Z,0.10
2022-10-11T12:32:51.778Z,0.20
2022-10-11T12:35:42.621Z,0.20
2022-10-11T12:38:21.982Z,0.20
2022-10-11T12:40:54.344Z,0.10
2022-10-11T12:43:36.219Z,0.10
2022-10-11T12:46:40.636Z,0.10
2022-10-11T12:49:33.639Z,0.20
2022-10-11T12:52:04.766Z,0.10
2022-10-11T12:55:11.487Z,0.10
2022-10-11T12:58:16.677Z,0.20
2022-10-11T13:01:23.570Z,0.10
2022-10-11T13:04:05.777Z,0.10
2022-10-11T13:06:38.215Z,0.10
2022-10-11T13:09:15.960Z,0.10
2022-10-11T13:11:49.047Z,0.10
2022-10-11T13:14:21.946Z,0.10
2022-10-11T13:17:00.639Z,0.10
2022-10-11T13:19:30.337Z,0.00
2022-10-11T13:22:01.125Z,0.10
2022-10-11T13:24:36.748Z,0.10
2022-10-11T13:27:06.266Z,0.10
2022-10-11T13:29:38.897Z,0.00
2022-10-11T13:32:12.445Z,0.10
2022-10-11T13:34:42.721Z,0.20
2022-10-11T13:37:18.228Z,0.10
2022-10-11T13:39:47.088Z,0.10
2022-10-11T13:42:17.118Z,0.10
2022-10-11T13:44:47.630Z,0.10
2022-10-11T13:47:18.399Z,0.10
2022-10-11T13:49:53.343Z,0.10
2022-10-11T13:52:24.246Z,0.10
2022-10-11T13:54:59.464Z,0.05
2022-10-11T13:57:37.815Z,0.10
2022-10-11T14:00:27.377Z,0.05
2022-10-11T14:03:00.421Z,0.10
2022-10-11T14:05:33.229Z,0.03
2022-10-11T14:08:03.873Z,0.00
2022-10-11T14:10:33.433Z,0.10
2022-10-11T14:13:08.688Z,0.00
2022-10-11T14:15:39.830Z,0.10
2022-10-11T14:18:37.920Z,0.10
2022-10-11T14:21:35.350Z,0.10
2022-10-11T14:24:06.185Z,0.10
2022-10-11T14:26:37.312Z,0.10
2022-10-11T14:29:09.317Z,0.10
2022-10-11T14:31:41.974Z,0.08
2022-10-11T14:34:17.348Z,0.10
2022-10-11T14:36:45.767Z,0.10
2022-10-11T14:39:17.594Z,0.00
2022-10-11T14:41:46.445Z,0.10
2022-10-11T14:44:15.051Z,0.10
2022-10-11T14:46:46.328Z,0.10
2022-10-11T14:49:16.318Z,0.10
2022-10-11T14:51:47.534Z,0.10
2022-10-11T14:54:19.021Z,0.10
2022-10-11T14:56:48.043Z,0.10
2022-10-11T14:59:18.189Z,0.05
2022-10-11T15:01:52.073Z,0.10
2022-10-11T15:04:22.541Z,0.10
2022-10-11T15:06:51.948Z,0.10
2022-10-11T15:09:21.746Z,0.10
2022-10-11T15:11:51.467Z,0.10
2022-10-11T15:14:19.977Z,0.10
2022-10-11T15:16:50.519Z,0.10
2022-10-11T15:19:21.308Z,0.10
2022-10-11T15:21:50.440Z,0.10
2022-10-11T15:24:20.010Z,0.10
2022-10-11T15:26:49.281Z,0.10
2022-10-11T15:29:19.083Z,0.10
2022-10-11T15:31:49.906Z,0.20
2022-10-11T15:34:18.407Z,0.10
2022-10-11T15:36:46.888Z,0.10
2022-10-11T15:39:27.788Z,0.20
2022-10-11T15:41:56.409Z,0.10
2022-10-11T15:44:25.021Z,0.10
2022-10-11T15:46:55.248Z,0.20
2022-10-11T15:49:23.757Z,0.10
2022-10-11T15:51:52.290Z,0.20
2022-10-11T15:54:20.771Z,0.10
2022-10-11T15:56:49.237Z,0.10
2022-10-11T15:59:17.563Z,0.20
2022-10-11T16:01:47.072Z,0.20
2022-10-11T16:04:17.294Z,0.20
2022-10-11T16:06:45.862Z,0.10
2022-10-11T16:09:14.423Z,0.20
2022-10-11T16:11:42.870Z,0.20
2022-10-11T16:14:11.379Z,0.20
2022-10-11T16:16:39.958Z,0.20
2022-10-11T16:19:09.021Z,0.20
2022-10-11T16:21:39.007Z,0.20
2022-10-11T16:24:08.980Z,0.20
2022-10-11T16:26:37.659Z,0.20
2022-10-11T16:29:06.378Z,0.20
2022-10-11T16:31:34.928Z,0.20
2022-10-11T16:34:04.358Z,0.20
2022-10-11T16:36:36.292Z,0.20
2022-10-11T16:39:10.669Z,0.20
2022-10-11T16:41:40.245Z,0.20
2022-10-11T16:44:11.404Z,0.10
2022-10-11T16:46:40.047Z,0.20
2022-10-11T16:49:09.219Z,0.20
2022-10-11T16:51:37.708Z,0.10
2022-10-11T16:54:07.911Z,0.20
2022-10-11T16:56:40.284Z,0.20
2022-10-11T16:59:09.226Z,0.20
2022-10-11T17:01:39.100Z,0.20
2022-10-11T17:04:08.519Z,0.20
2022-10-11T17:06:37.891Z,0.20
2022-10-11T17:09:08.740Z,0.20
2022-10-11T17:11:37.797Z,0.20
2022-10-11T17:14:07.493Z,0.20
2022-10-11T17:16:37.426Z,0.20
2022-10-11T17:19:06.953Z,0.30
2022-10-11T17:21:36.252Z,0.30
2022-10-11T17:24:05.599Z,0.20
2022-10-11T17:26:36.344Z,0.30
2022-10-11T17:29:05.527Z,0.30
2022-10-11T17:31:36.900Z,0.30
2022-10-11T17:34:07.849Z,0.20
2022-10-11T17:36:37.391Z,0.30
2022-10-11T17:39:19.492Z,0.30
2022-10-11T17:41:56.667Z,0.30
2022-10-11T17:44:25.293Z,0.30
2022-10-11T17:46:54.377Z,0.30
2022-10-11T17:49:23.410Z,0.30
2022-10-11T17:51:51.975Z,0.30
2022-10-11T17:54:21.588Z,0.30
2022-10-11T17:56:51.500Z,0.30
2022-10-11T17:59:22.489Z,0.30
2022-10-11T18:01:51.684Z,0.30
2022-10-11T18:04:21.616Z,0.30
2022-10-11T18:06:50.619Z,0.30
2022-10-11T18:09:19.521Z,0.30
2022-10-11T18:11:48.236Z,0.30
2022-10-11T18:14:18.567Z,0.30
2022-10-11T18:16:47.101Z,0.30
2022-10-11T18:19:16.019Z,0.20
2022-10-11T18:21:45.159Z,0.30
2022-10-11T18:24:16.609Z,0.20
2022-10-11T18:26:46.268Z,0.23
2022-10-11T18:29:15.518Z,0.30
2022-10-11T18:31:45.637Z,0.30
2022-10-11T18:34:15.926Z,0.30
2022-10-11T18:36:44.966Z,0.20
2022-10-11T18:39:16.215Z,0.30
2022-10-11T18:41:45.396Z,0.23
2022-10-11T18:44:15.462Z,0.30
2022-10-11T18:46:45.878Z,0.30
2022-10-11T18:49:15.605Z,0.30
2022-10-11T18:51:46.155Z,0.30
2022-10-11T18:54:18.474Z,0.30
2022-10-11T18:56:51.050Z,0.30
2022-10-11T18:59:20.421Z,0.30
2022-10-11T19:01:52.570Z,0.30
2022-10-11T19:04:21.542Z,0.40
2022-10-11T19:06:50.674Z,0.37
2022-10-11T19:09:21.646Z,0.40
2022-10-11T19:11:50.426Z,0.30
2022-10-11T19:14:22.559Z,0.30
2022-10-11T19:16:52.917Z,0.20
2022-10-11T19:19:23.880Z,0.30
2022-10-11T19:21:52.676Z,0.20
2022-10-11T19:24:23.189Z,0.20
2022-10-11T19:26:53.203Z,0.30
2022-10-11T19:29:23.553Z,0.30
2022-10-11T19:31:55.398Z,0.30
2022-10-11T19:34:26.938Z,0.30
2022-10-11T19:36:56.533Z,0.20
2022-10-11T19:39:25.573Z,0.30
2022-10-11T19:41:53.967Z,0.30
2022-10-11T19:44:22.591Z,0.23
2022-10-11T19:46:53.241Z,0.30
2022-10-11T19:49:24.720Z,0.30
2022-10-11T19:51:55.252Z,0.30
2022-10-11T19:54:24.394Z,0.37
2022-10-11T19:56:52.875Z,0.30
2022-10-11T19:59:21.282Z,0.20
2022-10-11T20:01:53.152Z,0.30
2022-10-11T20:07:11.918Z,0.30
2022-10-11T20:09:40.388Z,0.40
2022-10-11T20:12:09.600Z,0.40
2022-10-11T20:14:37.938Z,0.40
2022-10-11T20:17:06.317Z,0.40
2022-10-11T20:19:36.905Z,0.40
2022-10-11T20:22:05.964Z,0.40
2022-10-11T20:24:34.825Z,0.33
2022-10-11T20:27:04.966Z,0.30
2022-10-11T20:29:33.811Z,0.40
2022-10-11T20:32:02.829Z,0.30
2022-10-11T20:34:31.979Z,0.30
2022-10-11T20:37:01.799Z,0.30
2022-10-11T20:39:30.340Z,0.40
2022-10-11T20:41:59.035Z,0.40
2022-10-11T20:44:30.407Z,0.40
2022-10-11T20:47:03.857Z,0.30
2022-10-11T20:49:33.249Z,0.30
2022-10-11T20:52:03.439Z,0.40
2022-10-11T20:54:34.607Z,0.40
2022-10-11T20:57:03.216Z,0.33
2022-10-11T20:59:32.639Z,0.30
2022-10-11T21:02:01.954Z,0.40
2022-10-11T21:04:30.929Z,0.30
2022-10-11T21:06:59.722Z,0.40
2022-10-11T21:09:29.968Z,0.40
2022-10-11T21:11:58.470Z,0.40
2022-10-11T21:14:27.168Z,0.30
2022-10-11T21:16:56.977Z,0.30
2022-10-11T21:19:25.615Z,0.40
2022-10-11T21:21:54.417Z,0.40
2022-10-11T21:24:23.038Z,0.40
2022-10-11T21:26:55.887Z,0.30
2022-10-11T21:29:28.176Z,0.30
2022-10-11T21:31:56.620Z,0.33
2022-10-11T21:34:25.265Z,0.30
2022-10-11T21:36:53.667Z,0.30
2022-10-11T21:39:22.010Z,0.20
2022-10-11T21:41:50.481Z,0.30
2022-10-11T21:44:20.448Z,0.40
2022-10-11T21:47:06.165Z,0.40
2022-10-11T21:49:35.359Z,0.40
2022-10-11T21:52:04.116Z,0.20
2022-10-11T21:54:32.593Z,0.30
2022-10-11T21:57:01.438Z,0.20
2022-10-11T21:59:31.202Z,0.30
2022-10-11T22:02:02.083Z,0.40
2022-10-11T22:04:30.709Z,0.30
2022-10-11T22:06:59.131Z,0.30
2022-10-11T22:09:29.802Z,0.30
2022-10-11T22:11:58.527Z,0.30
2022-10-11T22:14:26.930Z,0.43
2022-10-11T22:16:56.922Z,0.30
2022-10-11T22:19:25.685Z,0.30
2022-10-11T22:21:54.069Z,0.30
2022-10-11T22:24:22.390Z,0.37
2022-10-11T22:26:50.808Z,0.30
2022-10-11T22:29:19.289Z,0.33
2022-10-11T22:31:47.850Z,0.40
2022-10-11T22:34:17.809Z,0.33
2022-10-11T22:36:46.252Z,0.40
2022-10-11T22:39:14.599Z,0.50
2022-10-11T22:41:42.900Z,0.50
2022-10-11T22:44:12.102Z,0.50
2022-10-11T22:46:40.991Z,0.43
2022-10-11T22:49:09.329Z,0.40
2022-10-11T22:51:39.054Z,0.30
2022-10-11T22:54:07.399Z,0.30
2022-10-11T22:56:35.893Z,0.40
2022-10-11T22:59:04.650Z,0.30
2022-10-11T23:01:33.256Z,0.27
2022-10-11T23:04:01.624Z,0.50
2022-10-11T23:06:30.440Z,0.30
2022-10-11T23:09:00.783Z,0.30
2022-10-11T23:11:29.437Z,0.30
2022-10-11T23:13:57.934Z,0.40
2022-10-11T23:16:26.301Z,0.30
2022-10-11T23:18:55.281Z,0.30
2022-10-11T23:21:23.991Z,0.30
2022-10-11T23:23:54.220Z,0.43
2022-10-11T23:26:23.902Z,0.30
2022-10-11T23:28:54.946Z,0.40
2022-10-11T23:31:23.624Z,0.40
2022-10-11T23:33:52.080Z,0.40
2022-10-11T23:36:22.492Z,0.40
2022-10-11T23:38:53.322Z,0.30
2022-10-11T23:41:23.739Z,0.50
2022-10-11T23:43:52.099Z,0.40
2022-10-11T23:46:20.598Z,0.40
2022-10-11T23:48:49.407Z,0.30
2022-10-11T23:51:17.838Z,0.30
2022-10-11T23:53:46.245Z,0.30
2022-10-11T23:56:15.184Z,0.30
2022-10-11T23:58:45.003Z,0.40
